Time;durP1;ratioP1;P1;durP2;ratioP2;P2;SDS_P1;SDS_P2;PMS_P1;PMS_P2;Temp;Humidity;BMP_temperature;BMP_pressure;BME280_temperature;BME280_humidity;BME280_pressure;Samples;Min_cycle;Max_cycle;Signal;HPM_P1;HPM_P2
2021/09/05 00:00:26;;;;;;;6.68;2.90;;;;;;;18.27;52.51;100190.47;5027591;28;20044;-22
2021/09/05 00:02:52;;;;;;;7.30;3.03;;;;;;;18.35;52.18;100195.34;5027482;28;20029;-23
2021/09/05 00:05:17;;;;;;;6.53;3.00;;;;;;;18.14;52.21;100177.47;5027606;28;20095;-22
2021/09/05 00:07:43;;;;;;;7.00;3.15;;;;;;;18.26;52.32;100195.03;5027496;28;20489;-23
2021/09/05 00:10:09;;;;;;;8.23;3.08;;;;;;;18.04;53.10;100184.50;5027265;28;20057;-22
2021/09/05 00:12:35;;;;;;;6.68;3.05;;;;;;;18.06;52.76;100195.81;5027335;28;20037;-22
2021/09/05 00:15:00;;;;;;;5.95;2.88;;;;;;;18.01;53.35;100179.59;5029670;28;20033;-22
2021/09/05 00:17:26;;;;;;;7.45;3.38;;;;;;;17.96;53.48;100182.31;5030853;28;20065;-22
2021/09/05 00:19:51;;;;;;;8.45;3.20;;;;;;;18.17;52.78;100185.06;5031008;28;20410;-22
2021/09/05 00:22:17;;;;;;;7.00;2.95;;;;;;;18.32;52.48;100201.28;5031005;28;20029;-22
2021/09/05 00:24:42;;;;;;;6.70;2.70;;;;;;;18.57;51.87;100202.38;5031050;28;20037;-22
2021/09/05 00:27:08;;;;;;;9.00;3.22;;;;;;;18.16;52.35;100181.53;5030889;28;20040;-22
2021/09/05 00:29:33;;;;;;;6.93;3.75;;;;;;;18.28;53.08;100211.78;5030861;28;20036;-22
2021/09/05 00:31:59;;;;;;;7.30;3.75;;;;;;;18.44;52.29;100209.13;5031082;28;20033;-22
2021/09/05 00:34:24;;;;;;;7.10;3.30;;;;;;;18.19;52.31;100208.00;5030741;28;20037;-23
2021/09/05 00:36:50;;;;;;;4.97;2.80;;;;;;;18.02;53.24;100197.44;5030862;28;20038;-22
2021/09/05 00:39:15;;;;;;;5.78;2.58;;;;;;;17.96;53.87;100209.28;5030721;28;20409;-22
2021/09/05 00:41:41;;;;;;;8.00;3.33;;;;;;;18.09;53.38;100204.47;5030297;28;20041;-22
2021/09/05 00:44:07;;;;;;;6.80;3.63;;;;;;;18.21;53.60;100210.44;5030457;28;20062;-22
2021/09/05 00:46:34;;;;;;;7.15;3.17;;;;;;;18.49;53.40;100211.84;5030442;28;20038;-22
2021/09/05 00:49:00;;;;;;;5.40;2.80;;;;;;;18.96;51.69;100204.59;5030049;28;20059;-22
2021/09/05 00:51:31;;;;;;;5.28;2.63;;;;;;;19.10;51.26;100205.66;5030140;28;20029;-22
2021/09/05 00:53:57;;;;;;;7.10;3.30;;;;;;;18.55;52.52;100209.94;5030350;28;20071;-22
2021/09/05 00:56:23;;;;;;;5.82;2.70;;;;;;;18.65;51.90;100200.00;5030287;28;20026;-22
2021/09/05 00:58:50;;;;;;;6.88;3.00;;;;;;;18.21;52.90;100199.66;5029131;28;20030;-23
2021/09/05 01:01:16;;;;;;;5.57;2.95;;;;;;;18.31;53.28;100215.03;5029166;28;20037;-23
2021/09/05 01:03:41;;;;;;;6.70;3.28;;;;;;;18.26;53.26;100218.53;5029923;28;20033;-22
2021/09/05 01:06:07;;;;;;;5.70;3.10;;;;;;;18.11;53.07;100203.13;5030179;28;20038;-22
2021/09/05 01:08:32;;;;;;;6.80;2.92;;;;;;;18.35;53.56;100219.66;5030091;28;20025;-23
2021/09/05 01:10:58;;;;;;;4.35;2.58;;;;;;;18.41;52.67;100201.59;5029602;28;20398;-22
2021/09/05 01:13:24;;;;;;;5.90;2.97;;;;;;;18.63;53.57;100222.94;5029852;28;20030;-22
2021/09/05 01:15:49;;;;;;;7.65;3.38;;;;;;;18.56;52.90;100227.78;5028807;28;20040;-23
2021/09/05 01:18:15;;;;;;;6.53;2.95;;;;;;;18.52;52.75;100226.72;5028750;28;20420;-22
2021/09/05 01:20:40;;;;;;;5.93;3.30;;;;;;;18.84;52.18;100208.41;5029966;28;20038;-22
2021/09/05 01:23:06;;;;;;;7.10;3.30;;;;;;;18.65;52.68;100220.75;5028697;28;20029;-22
2021/09/05 01:25:31;;;;;;;6.35;3.28;;;;;;;18.47;53.62;100228.31;5029586;28;20037;-23
2021/09/05 01:27:57;;;;;;;5.90;2.90;;;;;;;18.07;54.14;100231.72;5029989;28;20408;-24
2021/09/05 01:30:22;;;;;;;6.95;2.95;;;;;;;17.93;55.24;100225.19;5029726;28;20037;-22
2021/09/05 01:32:48;;;;;;;5.97;3.42;;;;;;;17.97;55.23;100228.97;5029557;28;20397;-22
2021/09/05 01:35:13;;;;;;;6.68;3.95;;;;;;;17.64;55.66;100223.66;5029707;28;20076;-22
2021/09/05 01:37:38;;;;;;;7.50;3.30;;;;;;;17.46;55.96;100226.81;5029586;28;20485;-22
2021/09/05 01:40:04;;;;;;;6.47;3.40;;;;;;;17.49;55.76;100220.91;5029816;28;20041;-22
2021/09/05 01:42:30;;;;;;;7.82;3.45;;;;;;;17.43;55.68;100200.38;5029322;28;20030;-23
2021/09/05 01:44:56;;;;;;;8.07;3.35;;;;;;;17.82;55.18;100232.41;5029525;28;20033;-22
2021/09/05 01:47:21;;;;;;;7.95;3.30;;;;;;;17.76;55.67;100231.56;5028977;28;20026;-22
2021/09/05 01:49:47;;;;;;;9.25;4.00;;;;;;;17.71;55.46;100211.84;5029393;28;20038;-22
2021/09/05 01:52:12;;;;;;;14.52;4.15;;;;;;;17.74;55.60;100227.50;5028921;28;20061;-23
2021/09/05 01:54:37;;;;;;;8.70;4.15;;;;;;;17.72;55.66;100229.66;5029104;28;20034;-23
2021/09/05 01:57:03;;;;;;;7.15;3.90;;;;;;;17.66;55.94;100226.91;5029496;28;20040;-22
2021/09/05 01:59:29;;;;;;;6.68;3.35;;;;;;;17.59;55.85;100220.97;5029154;28;20064;-23
2021/09/05 02:01:54;;;;;;;9.30;3.65;;;;;;;17.62;56.12;100235.81;5029348;28;20025;-22
2021/09/05 02:04:20;;;;;;;10.95;4.47;;;;;;;17.47;56.64;100221.16;5029178;28;20029;-23
2021/09/05 02:06:45;;;;;;;8.30;3.22;;;;;;;17.56;56.50;100232.25;5029029;28;20033;-22
2021/09/05 02:09:11;;;;;;;6.22;3.95;;;;;;;17.75;55.75;100234.50;5028786;28;20405;-22
2021/09/05 02:11:36;;;;;;;35.17;5.05;;;;;;;17.57;56.64;100228.50;5028308;28;20049;-22
2021/09/05 02:14:02;;;;;;;7.25;3.15;;;;;;;17.36;57.29;100234.81;5028931;28;20037;-22
2021/09/05 02:16:27;;;;;;;9.43;3.60;;;;;;;17.56;56.87;100232.25;5028725;28;20041;-23
2021/09/05 02:18:53;;;;;;;8.32;4.05;;;;;;;17.62;56.35;100236.59;5028832;28;20025;-22
2021/09/05 02:21:18;;;;;;;9.35;4.07;;;;;;;17.48;56.80;100235.44;5028232;28;20464;-22
2021/09/05 02:23:44;;;;;;;9.48;4.53;;;;;;;17.37;57.13;100242.66;5028615;28;20025;-22
2021/09/05 02:26:09;;;;;;;8.40;4.13;;;;;;;17.24;57.92;100235.00;5028631;28;20481;-22
2021/09/05 02:28:35;;;;;;;6.55;3.97;;;;;;;17.27;57.26;100238.00;5028635;28;20040;-22
2021/09/05 02:31:00;;;;;;;16.30;4.65;;;;;;;17.09;57.94;100238.41;5028661;28;20405;-22
2021/09/05 02:33:26;;;;;;;7.85;4.00;;;;;;;16.86;58.72;100244.97;5028700;28;20029;-22
2021/09/05 02:35:51;;;;;;;10.25;4.93;;;;;;;16.64;58.68;100221.56;5028358;28;20029;-22
2021/09/05 02:38:17;;;;;;;10.57;5.13;;;;;;;16.77;58.66;100236.47;5027770;28;20490;-22
2021/09/05 02:40:42;;;;;;;8.48;4.65;;;;;;;16.91;58.22;100241.50;5028314;28;20029;-22
2021/09/05 02:43:08;;;;;;;8.70;4.75;;;;;;;16.84;58.17;100220.16;5028282;28;20022;-22
2021/09/05 02:45:34;;;;;;;8.25;5.25;;;;;;;17.31;57.83;100245.59;5027986;28;20037;-22
2021/09/05 02:47:59;;;;;;;11.82;4.88;;;;;;;17.17;58.28;100250.59;5028018;28;20037;-22
2021/09/05 02:50:25;;;;;;;11.38;5.47;;;;;;;17.41;57.65;100229.47;5027977;28;20045;-22
2021/09/05 02:52:50;;;;;;;11.98;6.43;;;;;;;17.82;56.92;100252.09;5028244;28;20036;-22
2021/09/05 02:55:16;;;;;;;11.98;5.90;;;;;;;17.81;55.03;100246.94;5028051;28;20044;-23
2021/09/05 02:57:41;;;;;;;13.40;5.30;;;;;;;17.64;55.29;100249.84;5028079;28;20033;-22
2021/09/05 03:00:07;;;;;;;9.85;4.60;;;;;;;18.02;54.54;100237.06;5027941;28;20041;-23
2021/09/05 03:02:33;;;;;;;8.75;4.85;;;;;;;17.52;55.37;100250.03;5027886;28;20052;-22
2021/09/05 03:04:58;;;;;;;10.07;4.72;;;;;;;17.24;56.41;100254.72;5028139;28;20484;-22
2021/09/05 03:07:24;;;;;;;9.63;4.60;;;;;;;16.98;57.23;100248.31;5028003;28;20048;-22
2021/09/05 03:09:49;;;;;;;9.88;4.90;;;;;;;17.00;57.28;100250.72;5027895;28;20057;-22
2021/09/05 03:12:14;;;;;;;10.13;4.72;;;;;;;17.16;56.81;100238.19;5027880;28;20075;-22
2021/09/05 03:14:40;;;;;;;9.38;4.82;;;;;;;17.38;57.07;100248.84;5027898;28;20056;-22
2021/09/05 03:17:05;;;;;;;11.90;4.72;;;;;;;17.22;57.56;100247.94;5027842;28;20022;-22
2021/09/05 03:19:31;;;;;;;10.55;4.90;;;;;;;16.97;58.44;100230.50;5027600;28;20029;-22
2021/09/05 03:21:56;;;;;;;9.13;4.50;;;;;;;17.23;58.56;100239.59;5027585;28;20512;-23
2021/09/05 03:24:22;;;;;;;9.73;4.70;;;;;;;17.13;58.58;100250.31;5027703;28;20134;-22
2021/09/05 03:26:47;;;;;;;8.52;4.35;;;;;;;17.04;59.12;100251.84;5027822;28;20084;-22
2021/09/05 03:29:13;;;;;;;9.25;4.20;;;;;;;16.87;59.63;100258.16;5027583;28;20039;-22
2021/09/05 03:31:38;;;;;;;12.02;5.22;;;;;;;17.44;57.65;100256.72;5027413;28;20032;-22
2021/09/05 03:34:04;;;;;;;18.00;5.70;;;;;;;17.59;56.43;100247.09;5027805;28;20500;-23
2021/09/05 03:36:29;;;;;;;11.73;5.32;;;;;;;17.90;56.29;100258.91;5027681;28;20041;-23
2021/09/05 03:38:55;;;;;;;10.95;4.63;;;;;;;18.11;56.12;100262.50;5027582;28;20471;-22
2021/09/05 03:41:20;;;;;;;11.02;4.88;;;;;;;18.07;55.59;100267.59;5027841;28;20029;-22
2021/09/05 03:43:46;;;;;;;7.63;4.45;;;;;;;17.93;55.44;100268.34;5027575;28;20041;-22
2021/09/05 03:46:11;;;;;;;17.52;4.93;;;;;;;18.11;55.24;100259.78;5027367;28;20029;-22
2021/09/05 03:48:36;;;;;;;9.23;4.10;;;;;;;18.12;55.49;100253.31;5029160;28;20543;-23
2021/09/05 03:51:02;;;;;;;12.68;4.32;;;;;;;17.96;56.28;100274.03;5031491;28;20032;-22
2021/09/05 03:53:27;;;;;;;11.63;4.53;;;;;;;17.48;57.90;100270.50;5031120;28;20104;-23
2021/09/05 03:55:53;;;;;;;10.48;4.07;;;;;;;17.59;56.91;100264.09;5031764;28;20594;-23
2021/09/05 03:58:19;;;;;;;10.93;4.35;;;;;;;17.97;55.45;100274.84;5030114;28;20485;-22
2021/09/05 04:00:44;;;;;;;11.90;3.97;;;;;;;17.96;55.49;100268.66;5031278;28;20021;-22
2021/09/05 04:03:10;;;;;;;7.35;4.18;;;;;;;17.70;57.15;100258.78;5031305;28;20079;-23
2021/09/05 04:05:35;;;;;;;10.57;4.38;;;;;;;17.59;57.89;100282.97;5031072;28;20404;-22
2021/09/05 04:08:14;;;;;;;10.65;4.30;;;;;;;18.03;55.73;100288.09;5031023;28;20037;-22
2021/09/05 04:10:40;;;;;;;10.00;4.60;;;;;;;17.89;54.63;100275.34;5029796;28;20084;-23
2021/09/05 04:13:06;;;;;;;10.75;4.80;;;;;;;18.11;55.21;100296.78;5030468;28;20465;-22
2021/09/05 04:15:31;;;;;;;8.30;4.50;;;;;;;18.20;54.72;100300.56;5030907;28;20044;-22
2021/09/05 04:17:57;;;;;;;7.65;3.70;;;;;;;18.23;53.96;100283.88;5031016;28;20029;-23
2021/09/05 04:20:23;;;;;;;7.15;4.15;;;;;;;17.93;55.58;100290.75;5030898;28;20037;-22
2021/09/05 04:22:48;;;;;;;8.13;4.40;;;;;;;17.91;56.18;100286.69;5029769;28;20033;-23
2021/09/05 04:25:14;;;;;;;8.48;4.75;;;;;;;18.12;56.32;100306.47;5030772;28;20034;-22
2021/09/05 04:27:39;;;;;;;12.85;4.72;;;;;;;18.11;55.73;100292.19;5030556;28;20033;-22
2021/09/05 04:30:06;;;;;;;12.00;5.35;;;;;;;18.18;56.00;100308.13;5030794;28;20560;-22
2021/09/05 04:32:32;;;;;;;9.38;4.32;;;;;;;18.03;56.38;100304.28;5030717;28;20401;-22
2021/09/05 04:34:58;;;;;;;10.30;4.05;;;;;;;17.81;57.31;100306.28;5030852;28;20065;-22
2021/09/05 04:37:23;;;;;;;8.32;4.22;;;;;;;17.50;58.61;100297.22;5030597;28;20557;-22
2021/09/05 04:39:50;;;;;;;6.90;4.30;;;;;;;17.79;57.66;100311.13;5030341;28;20030;-22
2021/09/05 04:42:15;;;;;;;8.90;4.72;;;;;;;17.51;58.07;100318.53;5030855;28;20370;-23
2021/09/05 04:44:41;;;;;;;8.95;5.13;;;;;;;17.75;57.42;100297.34;5030967;28;20567;-22
2021/09/05 04:47:06;;;;;;;10.75;5.15;;;;;;;17.91;57.54;100297.47;5030403;28;20095;-23
2021/09/05 04:49:32;;;;;;;9.57;4.88;;;;;;;17.89;56.40;100286.94;5030196;28;20057;-23
2021/09/05 04:51:58;;;;;;;7.50;4.45;;;;;;;17.85;57.06;100300.13;5030364;28;20508;-22
2021/09/05 04:54:23;;;;;;;7.88;4.40;;;;;;;17.53;57.96;100315.53;5030350;28;20034;-22
2021/09/05 04:56:49;;;;;;;13.25;5.25;;;;;;;17.63;57.86;100324.53;5030367;28;20030;-23
2021/09/05 04:59:14;;;;;;;8.63;4.90;;;;;;;17.56;58.79;100323.94;5030105;28;20119;-22
2021/09/05 05:01:40;;;;;;;12.10;5.05;;;;;;;17.51;59.20;100332.00;5029320;28;20026;-22
2021/09/05 05:04:05;;;;;;;10.45;5.53;;;;;;;17.26;60.15;100314.56;5030309;28;20040;-23
2021/09/05 05:06:31;;;;;;;10.55;5.65;;;;;;;17.61;59.84;100332.06;5029936;28;20025;-22
2021/09/05 05:08:57;;;;;;;10.05;5.15;;;;;;;17.85;58.30;100331.72;5029997;28;20033;-22
2021/09/05 05:11:22;;;;;;;10.27;4.97;;;;;;;17.95;58.83;100328.25;5029610;28;20056;-22
2021/09/05 05:13:48;;;;;;;12.75;5.20;;;;;;;18.24;56.52;100334.06;5029993;28;20048;-23
2021/09/05 05:16:13;;;;;;;8.27;5.10;;;;;;;18.24;56.29;100328.66;5029865;28;20052;-23
2021/09/05 05:18:39;;;;;;;9.63;5.00;;;;;;;18.66;55.34;100325.06;5030080;28;20517;-22
2021/09/05 05:21:04;;;;;;;10.40;5.45;;;;;;;18.65;55.17;100334.22;5029860;28;20034;-22
2021/09/05 05:23:30;;;;;;;9.23;4.90;;;;;;;18.19;56.45;100342.97;5029457;28;20022;-23
2021/09/05 05:25:56;;;;;;;8.88;4.70;;;;;;;18.36;56.22;100342.75;5028054;28;20044;-23
2021/09/05 05:28:22;;;;;;;10.02;5.32;;;;;;;18.25;55.73;100324.91;5029667;28;20037;-23
2021/09/05 05:30:47;;;;;;;9.98;5.13;;;;;;;18.15;55.90;100336.47;5028652;28;20053;-23
2021/09/05 05:33:13;;;;;;;12.48;4.97;;;;;;;18.47;55.48;100319.34;5029462;28;20551;-23
2021/09/05 05:35:38;;;;;;;8.50;4.60;;;;;;;18.25;55.85;100314.91;5029329;28;20045;-23
2021/09/05 05:38:04;;;;;;;10.10;5.05;;;;;;;18.31;56.38;100336.53;5029963;28;20037;-23
2021/09/05 05:40:32;;;;;;;10.20;5.38;;;;;;;18.57;55.51;100326.63;5029483;28;20041;-22
2021/09/05 05:43:01;;;;;;;11.13;5.32;;;;;;;18.50;55.71;100335.00;5029759;28;20390;-23
2021/09/05 05:45:27;;;;;;;9.57;5.65;;;;;;;18.86;55.28;100330.53;5029177;28;20095;-23
2021/09/05 05:47:52;;;;;;;11.35;5.40;;;;;;;18.73;55.05;100332.88;5029208;28;20037;-23
2021/09/05 05:50:17;;;;;;;9.25;5.68;;;;;;;18.90;54.82;100325.41;5027959;28;20037;-23
2021/09/05 05:52:43;;;;;;;9.40;5.40;;;;;;;19.22;54.00;100322.44;5029197;28;20551;-23
2021/09/05 05:55:09;;;;;;;11.52;5.40;;;;;;;19.07;54.29;100338.66;5029103;28;20065;-23
2021/09/05 05:57:35;;;;;;;9.50;4.90;;;;;;;18.90;54.30;100336.22;5029001;28;20025;-23
2021/09/05 06:00:00;;;;;;;8.88;4.68;;;;;;;18.87;53.81;100334.84;5029394;28;20037;-23
2021/09/05 06:02:26;;;;;;;7.47;4.82;;;;;;;18.60;54.51;100339.63;5029114;28;20486;-22
2021/09/05 06:04:51;;;;;;;7.47;4.68;;;;;;;18.78;54.59;100343.72;5029017;28;20029;-22
2021/09/05 06:07:17;;;;;;;9.73;4.78;;;;;;;19.50;52.18;100350.03;5029155;28;20025;-22
2021/09/05 06:09:42;;;;;;;7.72;4.30;;;;;;;19.73;51.27;100345.16;5028615;28;20044;-23
2021/09/05 06:12:08;;;;;;;8.07;5.30;;;;;;;19.79;50.87;100353.00;5027787;28;20061;-23
2021/09/05 06:14:34;;;;;;;9.88;4.93;;;;;;;19.81;49.78;100353.53;5028539;28;20022;-22
2021/09/05 06:16:59;;;;;;;6.85;3.83;;;;;;;19.99;49.54;100356.75;5028659;28;20033;-22
2021/09/05 06:19:25;;;;;;;7.68;3.60;;;;;;;20.23;48.82;100335.31;5028445;28;20025;-22
2021/09/05 06:21:50;;;;;;;7.50;4.63;;;;;;;20.40;48.97;100345.81;5028554;28;20036;-22
2021/09/05 06:24:16;;;;;;;9.52;4.63;;;;;;;20.69;48.48;100356.78;5011013;28;20549;-22
2021/09/05 06:26:41;;;;;;;9.38;4.80;;;;;;;20.16;49.17;100353.72;5028403;28;20547;-23
2021/09/05 06:29:07;;;;;;;7.55;3.33;;;;;;;20.08;47.21;100365.94;5028457;28;20555;-22
2021/09/05 06:31:32;;;;;;;6.97;3.88;;;;;;;20.46;47.54;100355.53;5028127;28;20037;-23
2021/09/05 06:33:58;;;;;;;8.55;4.43;;;;;;;20.36;48.04;100366.41;5028282;28;20040;-22
2021/09/05 06:36:23;;;;;;;9.38;4.53;;;;;;;20.04;48.46;100354.03;5028875;28;20076;-22
2021/09/05 06:38:49;;;;;;;7.88;3.47;;;;;;;20.33;47.82;100362.34;5028239;28;20066;-22
2021/09/05 06:41:15;;;;;;;14.43;3.92;;;;;;;20.27;47.94;100369.69;5036122;28;20032;-23
2021/09/05 06:43:40;;;;;;;7.25;3.60;;;;;;;20.53;46.78;100361.44;5038242;28;20025;-23
2021/09/05 06:46:06;;;;;;;8.13;3.50;;;;;;;20.53;46.57;100368.75;5036676;28;20396;-23
2021/09/05 06:48:31;;;;;;;5.90;3.50;;;;;;;20.81;46.32;100372.72;5038161;28;20029;-23
2021/09/05 06:50:57;;;;;;;6.22;3.38;;;;;;;20.87;46.01;100358.84;5036228;28;20104;-23
2021/09/05 06:53:22;;;;;;;7.13;3.33;;;;;;;20.65;45.70;100366.56;5036281;28;20032;-22
2021/09/05 06:55:48;;;;;;;7.25;3.30;;;;;;;20.68;45.80;100374.16;5035787;28;20025;-23
2021/09/05 06:58:13;;;;;;;6.93;3.45;;;;;;;20.82;45.73;100358.06;5026875;28;20029;-23
2021/09/05 07:00:39;;;;;;;7.18;3.47;;;;;;;21.05;45.46;100362.00;5027909;28;20044;-22
2021/09/05 07:03:04;;;;;;;8.48;3.58;;;;;;;21.17;46.92;100365.19;5027964;28;20824;-22
2021/09/05 07:05:30;;;;;;;8.77;3.80;;;;;;;21.19;45.49;100354.84;5027724;28;20041;-22
2021/09/05 07:07:58;;;;;;;5.82;3.35;;;;;;;21.41;44.30;100381.56;5026626;28;20037;-22
2021/09/05 07:10:24;;;;;;;8.27;4.68;;;;;;;21.35;44.42;100376.44;5035029;28;20053;-23
2021/09/05 07:12:50;;;;;;;5.90;3.03;;;;;;;21.48;44.63;100380.44;5048548;28;20036;-22
2021/09/05 07:15:16;;;;;;;5.85;3.40;;;;;;;21.67;44.39;100375.94;5048827;28;20033;-23
2021/09/05 07:17:41;;;;;;;7.28;3.58;;;;;;;22.24;43.87;100376.19;5047274;28;20428;-23
2021/09/05 07:20:07;;;;;;;7.70;3.33;;;;;;;22.12;42.65;100376.56;5048835;28;20385;-22
2021/09/05 07:22:33;;;;;;;5.88;3.55;;;;;;;22.27;41.70;100381.03;5048499;28;20083;-23
2021/09/05 07:24:59;;;;;;;7.38;3.35;;;;;;;22.16;43.00;100368.66;5048966;28;20528;-22
2021/09/05 07:27:26;;;;;;;5.70;3.13;;;;;;;22.56;42.81;100377.47;5048560;28;20408;-22
2021/09/05 07:29:51;;;;;;;9.93;3.78;;;;;;;22.68;42.44;100386.00;5048624;28;20029;-22
2021/09/05 07:32:17;;;;;;;7.72;3.13;;;;;;;22.28;42.80;100371.81;5048517;28;20032;-23
2021/09/05 07:34:42;;;;;;;5.95;3.22;;;;;;;22.36;41.64;100383.94;5036915;28;20552;-23
2021/09/05 07:37:08;;;;;;;8.88;3.42;;;;;;;22.97;41.40;100387.78;5038106;28;20528;-23
2021/09/05 07:39:34;;;;;;;5.30;3.17;;;;;;;23.12;41.24;100386.78;5034200;28;20033;-23
2021/09/05 07:41:59;;;;;;;9.00;3.33;;;;;;;23.15;41.51;100388.88;5036028;28;20033;-23
2021/09/05 07:44:25;;;;;;;5.85;3.40;;;;;;;23.37;40.36;100396.44;5036109;28;20037;-23
2021/09/05 07:46:50;;;;;;;5.40;3.10;;;;;;;23.44;40.77;100392.25;5034552;28;20032;-23
2021/09/05 07:49:16;;;;;;;7.07;3.35;;;;;;;23.89;39.02;100396.44;5036397;28;20029;-23
2021/09/05 07:51:41;;;;;;;6.47;3.50;;;;;;;24.19;39.16;100397.75;5035484;28;20036;-23
2021/09/05 07:54:07;;;;;;;6.28;3.25;;;;;;;24.32;37.86;100398.91;5033755;28;20153;-23
2021/09/05 07:56:32;;;;;;;9.52;3.88;;;;;;;23.84;39.58;100395.44;5036542;28;20049;-23
2021/09/05 07:58:58;;;;;;;6.22;3.25;;;;;;;24.26;38.95;100384.56;5035052;28;20034;-23
2021/09/05 08:01:24;;;;;;;6.47;3.38;;;;;;;24.54;38.15;100396.28;5035154;28;20028;-23
2021/09/05 08:03:51;;;;;;;6.00;2.97;;;;;;;24.17;39.81;100398.09;5036605;28;20036;-22
2021/09/05 08:06:16;;;;;;;10.85;5.22;;;;;;;24.04;39.73;100386.03;5040823;28;20029;-22
2021/09/05 08:08:42;;;;;;;6.32;3.10;;;;;;;24.26;38.14;100384.56;5046693;28;20033;-22
2021/09/05 08:11:07;;;;;;;6.07;3.17;;;;;;;24.79;36.93;100394.94;5046474;28;20063;-22
2021/09/05 08:13:33;;;;;;;5.10;2.85;;;;;;;24.52;37.13;100392.22;5044847;28;20029;-22
2021/09/05 08:16:02;;;;;;;5.15;2.95;;;;;;;24.75;36.76;100388.47;5046329;28;20037;-23
2021/09/05 08:18:33;;;;;;;5.38;2.90;;;;;;;24.38;37.68;100387.59;5046384;28;20108;-23
2021/09/05 08:20:58;;;;;;;6.63;3.00;;;;;;;24.31;37.05;100398.06;5046352;28;20037;-23
2021/09/05 08:23:24;;;;;;;6.40;3.30;;;;;;;24.21;38.18;100388.19;5046222;28;20550;-22
2021/09/05 08:25:50;;;;;;;6.88;3.20;;;;;;;24.30;37.82;100391.00;5045199;28;20545;-22
2021/09/05 08:28:15;;;;;;;6.80;2.88;;;;;;;24.42;36.97;100399.50;5046534;28;20037;-22
2021/09/05 08:30:43;;;;;;;8.73;3.38;;;;;;;24.37;38.81;100390.59;5046213;28;20459;-22
2021/09/05 08:33:09;;;;;;;6.10;3.03;;;;;;;24.69;37.15;100399.81;5045922;28;20032;-22
2021/09/05 08:35:34;;;;;;;5.70;3.17;;;;;;;25.32;36.02;100381.78;5047659;28;20033;-22
2021/09/05 08:37:59;;;;;;;5.60;2.95;;;;;;;25.32;36.18;100384.50;5049929;28;20421;-22
2021/09/05 08:40:25;;;;;;;8.57;2.95;;;;;;;25.05;36.25;100381.53;5049877;28;20032;-22
2021/09/05 08:42:53;;;;;;;5.75;2.92;;;;;;;25.58;34.82;100377.28;5031811;28;20032;-23
2021/09/05 08:45:19;;;;;;;8.82;3.28;;;;;;;25.23;35.72;100354.41;5049670;28;20033;-22
2021/09/05 08:47:45;;;;;;;9.85;5.95;;;;;;;25.36;35.89;100360.91;5049723;28;20047;-23
2021/09/05 08:50:11;;;;;;;13.57;7.93;;;;;;;25.04;37.83;100377.19;5048425;28;20458;-22
2021/09/05 08:52:36;;;;;;;14.45;8.45;;;;;;;25.48;34.27;100358.44;5049866;28;20024;-22
2021/09/05 08:55:02;;;;;;;6.93;4.10;;;;;;;25.79;33.88;100369.38;5049965;28;20064;-22
2021/09/05 08:57:28;;;;;;;9.10;4.57;;;;;;;25.91;34.92;100371.53;5049339;28;20029;-22
2021/09/05 08:59:53;;;;;;;17.85;6.97;;;;;;;25.77;34.64;100347.03;5049519;28;20028;-22
2021/09/05 09:02:19;;;;;;;7.97;4.55;;;;;;;25.91;33.48;100354.31;5049891;28;20405;-23
2021/09/05 09:04:44;;;;;;;8.40;4.18;;;;;;;26.40;33.36;100355.16;5049503;28;20139;-22
2021/09/05 09:07:11;;;;;;;16.60;8.75;;;;;;;26.26;32.14;100358.00;5049313;28;20025;-23
2021/09/05 09:09:37;;;;;;;14.57;7.95;;;;;;;26.00;33.56;100360.66;5049284;28;20038;-22
2021/09/05 09:12:02;;;;;;;11.90;5.28;;;;;;;26.48;31.68;100359.84;5048992;28;20040;-22
2021/09/05 09:14:44;;;;;;;9.90;5.32;;;;;;;26.68;32.83;100361.16;5049188;28;20416;-23
2021/09/05 09:17:11;;;;;;;9.82;5.82;;;;;;;26.72;33.03;100345.72;5043014;28;20037;-22
2021/09/05 09:19:36;;;;;;;10.05;5.97;;;;;;;26.96;32.73;100344.44;5036787;28;20784;-22
2021/09/05 09:22:05;;;;;;;10.70;7.35;;;;;;;26.74;30.37;100332.53;5038878;28;20037;-22
2021/09/05 09:24:42;;;;;;;11.85;5.97;;;;;;;26.85;30.71;100341.25;5036086;28;20034;-22
2021/09/05 09:27:08;;;;;;;;;;;;;;;26.53;31.86;100348.72;5039610;28;20050;-22
2021/09/05 09:29:34;;;;;;;13.10;5.03;;;;;;;26.43;33.00;100336.16;5037188;28;20639;-22
2021/09/05 09:32:05;;;;;;;16.10;10.25;;;;;;;26.38;31.21;100341.78;5039010;28;20020;-22
2021/09/05 09:34:40;;;;;;;12.13;8.13;;;;;;;26.03;32.57;100347.16;5039617;28;20079;-22
2021/09/05 09:37:13;;;;;;;12.05;6.18;;;;;;;26.22;31.66;100337.91;5039520;28;20417;-22
2021/09/05 09:39:43;;;;;;;8.10;4.57;;;;;;;26.05;33.17;100338.63;5040073;28;20056;-22
2021/09/05 09:42:09;;;;;;;12.40;5.30;;;;;;;25.70;33.33;100332.19;5048587;28;20481;-22
2021/09/05 09:44:34;;;;;;;9.70;5.07;;;;;;;25.73;32.52;100337.84;5031365;28;20056;-23
2021/09/05 09:47:07;;;;;;;9.00;4.55;;;;;;;25.84;32.21;100332.91;5048633;28;20033;-23
2021/09/05 09:49:45;;;;;;;21.27;9.98;;;;;;;25.88;32.55;100333.88;5048494;28;20039;-22
2021/09/05 09:52:11;;;;;;;10.43;5.85;;;;;;;26.30;31.43;100344.53;5032368;28;20025;-22
2021/09/05 09:54:36;;;;;;;7.18;4.10;;;;;;;26.36;30.02;100333.09;5030730;28;20027;-22
2021/09/05 09:57:02;;;;;;;6.57;4.35;;;;;;;26.37;30.39;100340.16;5030543;28;20047;-22
2021/09/05 09:59:28;;;;;;;10.52;4.25;;;;;;;26.29;31.05;100338.22;5047066;28;20059;-22
2021/09/05 10:01:53;;;;;;;10.80;6.95;;;;;;;26.10;31.72;100338.50;5030963;28;20032;-22
2021/09/05 10:04:19;;;;;;;17.05;9.75;;;;;;;25.97;31.45;100323.84;5048423;28;20032;-22
2021/09/05 10:06:44;;;;;;;12.73;7.55;;;;;;;26.18;31.52;100336.91;5047990;28;20069;-23
2021/09/05 10:09:12;;;;;;;12.40;5.18;;;;;;;26.10;31.44;100334.97;5046980;28;20028;-22
2021/09/05 10:11:37;;;;;;;8.15;3.92;;;;;;;26.41;31.11;100338.41;5035385;28;21077;-22
2021/09/05 10:14:03;;;;;;;12.18;6.25;;;;;;;26.56;30.45;100331.69;5027256;28;20044;-22
2021/09/05 10:16:28;;;;;;;8.80;3.45;;;;;;;26.66;29.06;100336.06;5043407;28;20040;-22
2021/09/05 10:18:55;;;;;;;8.57;3.58;;;;;;;26.26;30.86;100331.47;5045785;28;20026;-22
2021/09/05 10:21:20;;;;;;;8.57;3.70;;;;;;;25.35;32.29;100312.88;5034773;28;20489;-22
2021/09/05 10:23:56;;;;;;;11.80;4.07;;;;;;;25.48;32.56;100322.94;5024915;28;20056;-22
2021/09/05 10:26:22;;;;;;;6.25;3.58;;;;;;;25.23;31.78;100336.13;5042177;28;20038;-22
2021/09/05 10:28:52;;;;;;;8.48;5.00;;;;;;;25.08;32.04;100330.97;5033846;28;20456;-22
2021/09/05 10:31:24;;;;;;;8.90;4.25;;;;;;;25.07;32.15;100337.56;5041410;28;20039;-23
2021/09/05 10:33:49;;;;;;;10.20;6.03;;;;;;;24.75;33.37;100331.19;5042487;28;20484;-22
2021/09/05 10:36:18;;;;;;;9.82;6.10;;;;;;;24.85;33.58;100324.72;5045160;28;20043;-23
2021/09/05 10:38:43;;;;;;;12.65;7.45;;;;;;;25.12;33.02;100331.97;5043521;28;20040;-22
2021/09/05 10:41:19;;;;;;;12.02;7.97;;;;;;;25.48;31.75;100336.59;5046740;28;20036;-22
2021/09/05 10:43:47;;;;;;;11.52;7.15;;;;;;;25.70;32.26;100332.19;5042187;28;20024;-23
2021/09/05 10:46:13;;;;;;;16.08;11.20;;;;;;;25.00;32.99;100320.81;5045128;28;20470;-22
2021/09/05 10:48:44;;;;;;;14.05;9.88;;;;;;;24.61;33.38;100314.06;5044116;28;20029;-23
2021/09/05 10:51:12;;;;;;;14.05;8.35;;;;;;;24.96;32.57;100325.28;5045422;28;20481;-22
2021/09/05 10:54:01;;;;;;;8.80;6.40;;;;;;;25.22;32.49;100329.03;5040016;28;20122;-22
2021/09/05 10:56:45;;;;;;;8.88;5.90;;;;;;;25.25;32.25;100333.88;5040202;28;20029;-22
2021/09/05 10:59:22;;;;;;;10.32;6.07;;;;;;;25.59;32.18;100309.81;5044602;28;20029;-22
2021/09/05 11:01:47;;;;;;;10.68;5.43;;;;;;;25.88;31.87;100333.88;5040344;28;20021;-23
2021/09/05 11:04:13;;;;;;;10.45;5.68;;;;;;;26.40;31.18;100331.34;5042903;28;20083;-22
2021/09/05 11:06:56;;;;;;;8.48;4.70;;;;;;;26.52;29.39;100329.91;5041217;28;20033;-22
2021/09/05 11:09:24;;;;;;;8.93;4.25;;;;;;;26.60;30.95;100337.34;5036256;28;20037;-22
2021/09/05 11:11:55;;;;;;;7.72;4.68;;;;;;;26.82;29.26;100326.25;5035244;28;20076;-22
2021/09/05 11:17:07;;;;;;;8.13;5.05;;;;;;;27.60;28.58;100325.38;5035886;28;20033;-22
2021/09/05 11:19:39;;;;;;;11.30;4.93;;;;;;;28.21;28.43;100327.84;5036456;28;20082;-22